createdAt,value
2022-10-13T00:00:43.295Z,82.43
2022-10-13T00:03:11.419Z,82.54
2022-10-13T00:05:44.705Z,82.48
2022-10-13T00:08:13.689Z,82.35
2022-10-13T00:10:42.202Z,82.21
2022-10-13T00:13:10.471Z,82.57
2022-10-13T00:15:40.311Z,84.25
2022-10-13T00:18:08.471Z,83.72
2022-10-13T00:20:37.339Z,84.31
2022-10-13T00:23:06.911Z,84.49
2022-10-13T00:25:35.259Z,83.29
2022-10-13T00:28:03.330Z,83.07
2022-10-13T00:30:35.339Z,83.47
2022-10-13T00:33:03.282Z,82.70
2022-10-13T00:35:31.255Z,81.51
2022-10-13T00:37:59.367Z,80.20
2022-10-13T00:40:28.717Z,79.30
2022-10-13T00:42:56.748Z,79.33
2022-10-13T00:45:26.208Z,79.21
2022-10-13T00:47:57.808Z,78.78
2022-10-13T00:50:30.245Z,78.07
2022-10-13T00:53:00.223Z,77.82
2022-10-13T00:55:33.235Z,78.86
2022-10-13T00:58:05.316Z,80.40
2022-10-13T01:00:35.096Z,82.04
2022-10-13T01:03:03.336Z,84.47
2022-10-13T01:05:32.493Z,86.14
2022-10-13T01:08:01.042Z,87.23
2022-10-13T01:10:40.899Z,87.81
2022-10-13T01:13:18.461Z,87.84
2022-10-13T01:15:52.784Z,87.55
2022-10-13T01:18:28.369Z,85.45
2022-10-13T01:21:20.077Z,84.53
2022-10-13T01:24:29.548Z,84.27
2022-10-13T01:27:30.080Z,85.30
2022-10-13T01:30:09.370Z,85.12
2022-10-13T01:33:06.695Z,84.87
2022-10-13T01:35:45.481Z,85.50
2022-10-13T01:38:26.385Z,85.50
2022-10-13T01:41:03.619Z,85.14
2022-10-13T01:43:37.678Z,85.92
2022-10-13T01:46:13.326Z,86.28
2022-10-13T01:48:43.924Z,86.16
2022-10-13T01:51:15.544Z,85.92
2022-10-13T01:53:45.193Z,86.00
2022-10-13T01:56:13.564Z,85.34
2022-10-13T01:58:41.954Z,85.10
2022-10-13T02:01:23.802Z,84.54
2022-10-13T02:04:03.212Z,84.25
2022-10-13T02:06:36.882Z,85.30
2022-10-13T02:09:11.542Z,85.39
2022-10-13T02:11:44.644Z,84.89
2022-10-13T02:14:18.906Z,84.91
2022-10-13T02:16:50.782Z,85.22
2022-10-13T02:19:20.423Z,85.37
2022-10-13T02:21:49.832Z,85.30
2022-10-13T02:24:17.976Z,86.98
2022-10-13T02:26:46.658Z,87.28
2022-10-13T02:29:17.226Z,87.15
2022-10-13T02:31:46.919Z,86.34
2022-10-13T02:34:16.976Z,86.91
2022-10-13T02:36:45.051Z,88.12
2022-10-13T02:39:13.270Z,87.75
2022-10-13T02:41:41.323Z,87.16
2022-10-13T02:44:09.307Z,86.84
2022-10-13T02:46:37.370Z,88.46
2022-10-13T02:49:05.482Z,88.49
2022-10-13T02:51:39.710Z,88.07
2022-10-13T02:54:08.365Z,88.00
2022-10-13T02:56:36.520Z,87.17
2022-10-13T02:59:04.683Z,86.09
2022-10-13T03:01:32.942Z,85.99
2022-10-13T03:04:00.887Z,86.53
2022-10-13T03:06:28.914Z,85.76
2022-10-13T03:08:58.457Z,86.25
2022-10-13T03:11:26.996Z,86.53
2022-10-13T03:13:55.069Z,86.00
2022-10-13T03:16:23.093Z,85.58
2022-10-13T03:18:51.141Z,85.07
2022-10-13T03:21:19.245Z,84.38
2022-10-13T03:23:47.245Z,84.19
2022-10-13T03:26:16.907Z,83.64
2022-10-13T03:28:45.056Z,82.72
2022-10-13T03:31:14.059Z,83.41
2022-10-13T03:33:42.274Z,84.18
2022-10-13T03:36:13.307Z,83.49
2022-10-13T03:38:41.670Z,83.48
2022-10-13T03:41:11.913Z,83.58
2022-10-13T03:43:42.150Z,84.17
2022-10-13T03:46:13.274Z,84.05
2022-10-13T03:48:41.716Z,83.57
2022-10-13T03:51:11.554Z,83.28
2022-10-13T03:53:39.560Z,84.17
2022-10-13T03:56:07.969Z,84.54
2022-10-13T03:58:36.557Z,83.80
2022-10-13T04:01:06.708Z,83.56
2022-10-13T04:03:35.227Z,83.66
2022-10-13T04:06:04.969Z,83.79
2022-10-13T04:08:34.435Z,84.44
2022-10-13T04:11:03.591Z,84.45
2022-10-13T04:13:31.939Z,85.63
2022-10-13T04:16:03.753Z,86.15
2022-10-13T04:18:33.460Z,85.96
2022-10-13T04:21:01.672Z,85.65
2022-10-13T04:23:29.730Z,84.73
2022-10-13T04:25:57.923Z,84.56
2022-10-13T04:28:26.032Z,83.92
2022-10-13T04:30:54.261Z,83.57
2022-10-13T04:33:23.248Z,83.83
2022-10-13T04:35:52.764Z,84.45
2022-10-13T04:38:20.927Z,84.83
2022-10-13T04:40:50.170Z,84.55
2022-10-13T04:43:18.339Z,83.99
2022-10-13T04:45:46.361Z,84.88
2022-10-13T04:48:15.049Z,84.93
2022-10-13T04:50:43.049Z,85.33
2022-10-13T04:53:15.438Z,83.99
2022-10-13T04:55:47.545Z,84.25
2022-10-13T04:58:15.527Z,85.14
2022-10-13T05:00:47.161Z,85.48
2022-10-13T05:03:15.704Z,85.13
2022-10-13T05:05:43.640Z,85.55
2022-10-13T05:08:13.099Z,85.06
2022-10-13T05:10:42.942Z,85.46
2022-10-13T05:13:10.936Z,86.19
2022-10-13T05:15:40.748Z,85.57
2022-10-13T05:18:08.826Z,85.61
2022-10-13T05:20:36.932Z,85.25
2022-10-13T05:23:05.298Z,84.56
2022-10-13T05:25:35.971Z,84.64
2022-10-13T05:28:04.272Z,85.13
2022-10-13T05:30:32.599Z,84.93
2022-10-13T05:33:01.007Z,85.41
2022-10-13T05:35:29.429Z,84.50
2022-10-13T05:37:57.860Z,84.27
2022-10-13T05:40:26.636Z,84.07
2022-10-13T05:42:57.983Z,85.62
2022-10-13T05:45:29.180Z,85.37
2022-10-13T05:47:57.532Z,84.49
2022-10-13T05:50:26.922Z,84.22
2022-10-13T05:52:55.022Z,83.73
2022-10-13T05:55:23.172Z,83.79
2022-10-13T05:57:54.659Z,84.00
2022-10-13T06:00:24.851Z,84.15
2022-10-13T06:02:58.936Z,83.67
2022-10-13T06:05:28.794Z,84.12
2022-10-13T06:07:58.368Z,83.71
2022-10-13T06:10:27.733Z,82.71
2022-10-13T06:12:55.926Z,81.99
2022-10-13T06:15:28.135Z,81.37
2022-10-13T06:17:56.268Z,80.36
2022-10-13T06:20:24.435Z,80.33
2022-10-13T06:22:52.820Z,79.79
2022-10-13T06:25:20.983Z,79.45
2022-10-13T06:27:49.024Z,80.33
2022-10-13T06:30:17.185Z,79.40
2022-10-13T06:32:46.816Z,79.13
2022-10-13T06:35:15.340Z,78.66
2022-10-13T06:37:43.783Z,77.99
2022-10-13T06:40:13.027Z,77.72
2022-10-13T06:42:41.192Z,78.29
2022-10-13T06:45:10.574Z,78.89
2022-10-13T06:47:39.530Z,78.82
2022-10-13T06:50:09.997Z,78.82
2022-10-13T06:52:38.503Z,79.90
2022-10-13T06:55:07.632Z,79.64
2022-10-13T06:57:35.669Z,78.96
2022-10-13T07:00:04.047Z,78.09
2022-10-13T07:02:32.211Z,77.95
2022-10-13T07:05:00.624Z,77.34
2022-10-13T07:07:30.004Z,77.66
2022-10-13T07:09:58.100Z,76.80
2022-10-13T07:12:26.185Z,75.93
2022-10-13T07:14:54.253Z,74.71
2022-10-13T07:17:22.571Z,73.98
2022-10-13T07:19:52.022Z,74.57
2022-10-13T07:22:21.735Z,73.87
2022-10-13T07:24:51.201Z,73.47
2022-10-13T07:27:19.440Z,73.83
2022-10-13T07:29:47.786Z,73.16
2022-10-13T07:32:15.929Z,72.74
2022-10-13T07:34:44.023Z,72.60
2022-10-13T07:37:12.564Z,72.06
2022-10-13T07:39:42.260Z,71.80
2022-10-13T07:42:11.804Z,71.38
2022-10-13T07:44:40.159Z,70.27
2022-10-13T07:47:08.167Z,70.05
2022-10-13T07:49:36.192Z,69.67
2022-10-13T07:52:04.531Z,69.60
2022-10-13T07:54:32.964Z,69.39
2022-10-13T07:57:01.663Z,70.82
2022-10-13T07:59:33.520Z,70.20
2022-10-13T08:02:02.206Z,70.64
2022-10-13T08:04:31.277Z,70.31
2022-10-13T08:06:59.570Z,70.15
2022-10-13T08:09:28.136Z,69.60
2022-10-13T08:12:00.559Z,68.89
2022-10-13T08:14:31.721Z,68.17
2022-10-13T08:17:01.373Z,67.88
2022-10-13T08:19:30.233Z,67.36
2022-10-13T08:21:59.638Z,67.09
2022-10-13T08:24:28.511Z,66.93
2022-10-13T08:26:56.848Z,66.50
2022-10-13T08:29:25.774Z,65.84
2022-10-13T08:31:56.172Z,65.15
2022-10-13T08:34:25.863Z,65.42
2022-10-13T08:36:56.509Z,65.02
2022-10-13T08:39:25.645Z,64.60
2022-10-13T08:41:54.364Z,64.19
2022-10-13T08:47:29.233Z,63.79
2022-10-13T08:50:00.814Z,63.20
2022-10-13T08:52:31.547Z,62.54
2022-10-13T08:54:59.922Z,62.99
2022-10-13T08:57:28.287Z,62.44
2022-10-13T08:59:56.235Z,62.47
2022-10-13T09:02:32.837Z,61.94
2022-10-13T09:05:03.936Z,61.61
2022-10-13T09:07:36.339Z,61.57
2022-10-13T09:10:07.946Z,60.94
2022-10-13T09:12:36.018Z,62.17
2022-10-13T09:15:08.034Z,62.08
2022-10-13T09:17:38.855Z,61.14
2022-10-13T09:20:16.310Z,60.02
2022-10-13T09:22:44.755Z,59.61
2022-10-13T09:25:23.834Z,60.50
2022-10-13T09:27:54.743Z,60.10
2022-10-13T09:30:29.613Z,59.92
2022-10-13T09:33:15.350Z,59.12
2022-10-13T09:35:45.641Z,58.74
2022-10-13T09:38:17.107Z,57.56
2022-10-13T09:40:56.876Z,57.33
2022-10-13T09:43:31.339Z,56.91
2022-10-13T09:46:00.501Z,55.70
2022-10-13T09:48:32.244Z,55.16
2022-10-13T09:51:00.322Z,55.90
2022-10-13T09:53:34.010Z,56.05
2022-10-13T09:56:20.382Z,56.00
2022-10-13T09:58:56.439Z,54.13
2022-10-13T10:01:29.549Z,53.63
2022-10-13T10:03:59.312Z,53.39
2022-10-13T10:06:28.073Z,52.43
2022-10-13T10:09:04.876Z,52.67
2022-10-13T10:11:38.721Z,53.12
2022-10-13T10:14:17.617Z,52.67
2022-10-13T10:16:51.239Z,53.34
2022-10-13T10:19:23.944Z,52.16
2022-10-13T10:22:04.076Z,53.17
2022-10-13T10:24:43.828Z,53.70
2022-10-13T10:29:56.212Z,53.15
2022-10-13T10:32:32.813Z,52.43
2022-10-13T10:35:12.423Z,53.23
2022-10-13T10:37:56.326Z,53.44
2022-10-13T10:40:35.712Z,54.12
2022-10-13T10:43:23.678Z,54.26
2022-10-13T10:45:51.721Z,53.95
2022-10-13T10:48:22.327Z,53.17
2022-10-13T10:50:52.940Z,53.52
2022-10-13T10:53:30.219Z,53.28
2022-10-13T10:56:05.281Z,52.07
2022-10-13T10:58:43.186Z,50.96
2022-10-13T11:01:27.090Z,52.48
2022-10-13T11:03:59.901Z,51.31
2022-10-13T11:06:37.191Z,52.33
2022-10-13T11:09:06.818Z,52.13
2022-10-13T11:11:38.319Z,51.90
2022-10-13T11:14:29.854Z,50.85
2022-10-13T11:17:16.855Z,50.99
2022-10-13T11:19:45.726Z,50.21
2022-10-13T11:22:18.141Z,50.67
2022-10-13T11:24:54.380Z,49.23
2022-10-13T11:27:43.455Z,47.47
2022-10-13T11:30:43.882Z,48.20
2022-10-13T11:33:34.743Z,48.49
2022-10-13T11:36:34.199Z,47.41
2022-10-13T11:39:19.776Z,47.34
2022-10-13T11:41:56.616Z,47.71
2022-10-13T11:44:32.489Z,47.75
2022-10-13T11:47:09.048Z,46.40
2022-10-13T11:50:04.005Z,46.22
2022-10-13T11:52:48.434Z,45.55
2022-10-13T11:55:22.592Z,46.21
2022-10-13T11:57:50.921Z,45.79
2022-10-13T12:00:20.732Z,45.83
2022-10-13T12:02:50.875Z,43.39
2022-10-13T12:05:24.219Z,44.20
2022-10-13T12:07:56.201Z,43.24
2022-10-13T12:10:32.325Z,41.85
2022-10-13T12:13:01.092Z,42.64
2022-10-13T12:15:37.357Z,42.33
2022-10-13T12:18:21.873Z,41.44
2022-10-13T12:20:54.829Z,41.39
2022-10-13T12:23:23.855Z,40.57
2022-10-13T12:25:58.451Z,40.53
2022-10-13T12:28:29.736Z,41.31
2022-10-13T12:31:00.567Z,41.43
2022-10-13T12:33:31.507Z,40.63
2022-10-13T12:36:13.549Z,41.36
2022-10-13T12:38:48.469Z,40.60
2022-10-13T12:41:22.269Z,40.07
2022-10-13T12:43:51.993Z,39.20
2022-10-13T12:46:38.502Z,39.79
2022-10-13T12:49:07.360Z,39.19
2022-10-13T12:51:38.210Z,37.69
2022-10-13T12:54:10.813Z,38.11
2022-10-13T12:56:44.553Z,37.76
2022-10-13T12:59:18.430Z,37.74
2022-10-13T13:01:47.495Z,37.59
2022-10-13T13:04:28.978Z,37.79
2022-10-13T13:07:01.172Z,38.74
2022-10-13T13:09:31.042Z,39.03
2022-10-13T13:12:24.673Z,39.33
2022-10-13T13:14:55.153Z,39.54
2022-10-13T13:20:27.142Z,40.15
2022-10-13T13:22:55.227Z,39.86
2022-10-13T13:25:23.979Z,38.90
2022-10-13T13:27:54.276Z,38.81
2022-10-13T13:30:24.812Z,39.00
2022-10-13T13:32:53.062Z,38.32
2022-10-13T13:35:21.386Z,38.84
2022-10-13T13:37:51.192Z,38.39
2022-10-13T13:40:21.442Z,37.14
2022-10-13T13:42:50.433Z,37.28
2022-10-13T13:45:23.161Z,37.76
2022-10-13T13:47:51.291Z,37.17
2022-10-13T13:50:24.171Z,37.55
2022-10-13T13:52:52.755Z,39.30
2022-10-13T13:55:21.209Z,38.40
2022-10-13T13:57:50.083Z,36.67
2022-10-13T14:00:20.131Z,36.77
2022-10-13T14:02:49.663Z,36.28
2022-10-13T14:05:18.804Z,36.13
2022-10-13T14:07:47.082Z,36.53
2022-10-13T14:10:15.540Z,37.21
2022-10-13T14:12:44.008Z,35.69
2022-10-13T14:15:12.699Z,36.00
2022-10-13T14:17:42.494Z,35.70
2022-10-13T14:20:12.128Z,35.70
2022-10-13T14:22:40.424Z,36.09
2022-10-13T14:25:09.564Z,36.17
2022-10-13T14:27:38.097Z,36.79
2022-10-13T14:30:06.973Z,36.09
2022-10-13T14:32:35.561Z,36.04
2022-10-13T14:35:06.053Z,36.21
2022-10-13T14:37:34.815Z,36.22
2022-10-13T14:40:03.310Z,35.29
2022-10-13T14:42:31.480Z,34.59
2022-10-13T14:44:59.578Z,35.37
2022-10-13T14:47:27.986Z,34.79
2022-10-13T14:49:56.828Z,34.86
2022-10-13T14:52:26.254Z,35.31
2022-10-13T14:54:54.441Z,35.40
2022-10-13T14:57:22.930Z,35.83
2022-10-13T14:59:51.119Z,35.36
2022-10-13T15:02:19.177Z,36.21
2022-10-13T15:04:47.192Z,36.71
2022-10-13T15:10:26.607Z,37.20
2022-10-13T15:13:15.683Z,37.47
2022-10-13T15:16:20.725Z,37.64
2022-10-13T15:18:49.470Z,37.89
2022-10-13T15:21:33.517Z,38.05
2022-10-13T15:24:01.915Z,38.89
2022-10-13T15:26:40.310Z,38.94
2022-10-13T15:29:11.517Z,38.86
2022-10-13T15:31:40.937Z,38.75
2022-10-13T15:34:20.420Z,39.26
2022-10-13T15:36:49.121Z,39.80
2022-10-13T15:39:37.876Z,39.82
2022-10-13T15:42:07.456Z,40.06
2022-10-13T15:47:23.661Z,40.56
2022-10-13T15:49:51.948Z,40.45
2022-10-13T15:52:20.727Z,40.99
2022-10-13T15:54:51.493Z,40.61
2022-10-13T15:57:21.709Z,40.90
2022-10-13T15:59:49.841Z,41.24
2022-10-13T16:02:18.231Z,40.88
2022-10-13T16:04:46.673Z,41.08
2022-10-13T16:07:15.058Z,41.39
2022-10-13T16:09:43.012Z,41.47
2022-10-13T16:12:11.022Z,41.66
2022-10-13T16:14:40.491Z,40.71
2022-10-13T16:17:08.566Z,40.78
2022-10-13T16:19:36.524Z,39.73
2022-10-13T16:22:04.521Z,39.52
2022-10-13T16:24:34.033Z,40.00
2022-10-13T16:27:02.074Z,40.82
2022-10-13T16:29:30.103Z,40.72
2022-10-13T16:32:00.539Z,40.79
2022-10-13T16:34:29.185Z,39.98
2022-10-13T16:36:57.271Z,40.06
2022-10-13T16:39:26.118Z,40.58
2022-10-13T16:41:54.161Z,41.05
2022-10-13T16:44:22.146Z,41.47
2022-10-13T16:46:52.415Z,41.86
2022-10-13T16:49:21.897Z,41.63
2022-10-13T16:51:49.932Z,41.48
2022-10-13T16:54:17.980Z,42.31
2022-10-13T16:56:46.991Z,42.46
2022-10-13T16:59:15.070Z,42.35
2022-10-13T17:01:43.058Z,43.19
2022-10-13T17:04:11.181Z,43.66
2022-10-13T17:06:41.080Z,44.11
2022-10-13T17:09:09.230Z,44.12
2022-10-13T17:11:38.509Z,43.95
2022-10-13T17:14:07.061Z,44.67
2022-10-13T17:16:36.129Z,44.57
2022-10-13T17:19:04.833Z,44.02
2022-10-13T17:21:32.865Z,44.26
2022-10-13T17:24:02.412Z,44.57
2022-10-13T17:26:30.549Z,44.84
2022-10-13T17:28:58.740Z,44.75
2022-10-13T17:31:26.891Z,45.25
2022-10-13T17:33:55.331Z,45.70
2022-10-13T17:36:25.533Z,45.70
2022-10-13T17:38:56.152Z,45.64
2022-10-13T17:41:26.338Z,45.62
2022-10-13T17:43:54.595Z,45.20
2022-10-13T17:46:39.896Z,45.28
2022-10-13T17:49:10.864Z,45.37
2022-10-13T17:51:39.172Z,45.84
2022-10-13T17:54:11.601Z,46.15
2022-10-13T17:56:45.732Z,45.32
2022-10-13T17:59:14.200Z,45.99
2022-10-13T18:01:42.716Z,46.44
2022-10-13T18:04:13.579Z,47.17
2022-10-13T18:06:44.052Z,47.63
2022-10-13T18:09:14.122Z,47.19
2022-10-13T18:11:49.830Z,47.30
2022-10-13T18:14:19.544Z,47.23
2022-10-13T18:16:49.291Z,46.65
2022-10-13T18:19:17.420Z,46.31
2022-10-13T18:21:45.641Z,46.59
2022-10-13T18:24:13.776Z,47.30
2022-10-13T18:26:42.411Z,47.38
2022-10-13T18:29:13.625Z,47.53
2022-10-13T18:31:42.710Z,48.26
2022-10-13T18:34:13.857Z,48.69
2022-10-13T18:36:43.901Z,50.08
2022-10-13T18:39:13.986Z,50.22
2022-10-13T18:41:43.478Z,51.28
2022-10-13T18:44:13.594Z,50.28
2022-10-13T18:46:42.565Z,49.92
2022-10-13T18:49:13.933Z,50.20
2022-10-13T18:51:42.304Z,48.22
2022-10-13T18:54:10.606Z,49.82
2022-10-13T18:56:38.872Z,50.27
2022-10-13T18:59:09.557Z,50.00
2022-10-13T19:01:40.948Z,49.94
2022-10-13T19:04:12.727Z,49.81
2022-10-13T19:06:41.890Z,49.77
2022-10-13T19:09:13.562Z,48.86
2022-10-13T19:11:42.237Z,48.75
2022-10-13T19:14:13.619Z,49.14
2022-10-13T19:16:44.880Z,49.73
2022-10-13T19:19:13.140Z,50.18
2022-10-13T19:21:41.849Z,50.29
2022-10-13T19:24:10.563Z,50.93
2022-10-13T19:26:39.850Z,51.10
2022-10-13T19:29:09.919Z,50.04
2022-10-13T19:31:39.362Z,50.91
2022-10-13T19:34:09.748Z,51.36
2022-10-13T19:36:40.086Z,51.32
2022-10-13T19:39:11.791Z,51.79
2022-10-13T19:41:40.476Z,51.90
2022-10-13T19:44:08.759Z,51.13
2022-10-13T19:46:37.678Z,50.88
2022-10-13T19:49:05.903Z,50.73
2022-10-13T19:51:35.440Z,51.24
2022-10-13T19:54:03.490Z,50.89
2022-10-13T19:56:34.062Z,51.30
2022-10-13T19:59:04.334Z,52.00
2022-10-13T20:01:35.670Z,52.83
2022-10-13T20:04:03.944Z,52.07
2022-10-13T20:06:31.944Z,52.60
2022-10-13T20:09:01.845Z,52.28
2022-10-13T20:11:30.033Z,52.36
2022-10-13T20:13:58.385Z,51.97
2022-10-13T20:16:28.222Z,52.70
2022-10-13T20:18:58.265Z,52.63
2022-10-13T20:21:28.097Z,53.31
2022-10-13T20:23:56.580Z,53.60
2022-10-13T20:26:27.367Z,54.90
2022-10-13T20:28:56.081Z,54.43
2022-10-13T20:31:27.970Z,54.47
2022-10-13T20:33:57.018Z,54.06
2022-10-13T20:36:26.934Z,53.77
2022-10-13T20:38:55.664Z,53.41
2022-10-13T20:41:27.736Z,54.28
2022-10-13T20:43:57.807Z,54.84
2022-10-13T20:46:26.828Z,54.35
2022-10-13T20:49:10.484Z,54.54
2022-10-13T20:51:39.381Z,55.35
2022-10-13T20:54:08.073Z,56.26
2022-10-13T20:56:38.000Z,56.77
2022-10-13T20:59:07.760Z,57.59
2022-10-13T21:01:35.954Z,57.13
2022-10-13T21:04:04.220Z,57.50
2022-10-13T21:06:33.016Z,57.91
2022-10-13T21:09:00.961Z,57.96
2022-10-13T21:11:29.246Z,58.68
2022-10-13T21:13:58.869Z,59.52
2022-10-13T21:16:29.041Z,60.25
2022-10-13T21:18:58.647Z,60.50
2022-10-13T21:21:28.945Z,60.92
2022-10-13T21:23:59.006Z,61.10
2022-10-13T21:26:28.761Z,61.21
2022-10-13T21:28:58.689Z,60.48
2022-10-13T21:31:27.665Z,60.30
2022-10-13T21:33:57.216Z,60.57
2022-10-13T21:36:37.044Z,60.87
2022-10-13T21:39:06.990Z,62.02
2022-10-13T21:41:35.057Z,61.75
2022-10-13T21:44:05.154Z,62.47
2022-10-13T21:46:35.239Z,63.53
2022-10-13T21:49:04.823Z,63.62
2022-10-13T21:51:35.243Z,63.39
2022-10-13T21:54:05.016Z,63.96
2022-10-13T21:56:33.854Z,63.34
2022-10-13T21:59:02.350Z,62.66
2022-10-13T22:01:31.745Z,62.04
2022-10-13T22:04:02.014Z,61.42
2022-10-13T22:06:32.252Z,61.75
2022-10-13T22:09:01.759Z,62.36
2022-10-13T22:11:31.908Z,62.89
2022-10-13T22:14:00.603Z,63.08
2022-10-13T22:16:30.498Z,64.16
2022-10-13T22:19:00.232Z,64.52
2022-10-13T22:21:31.385Z,64.28
2022-10-13T22:24:01.218Z,64.06
2022-10-13T22:26:31.029Z,64.67
2022-10-13T22:28:59.985Z,65.37
2022-10-13T22:31:28.383Z,66.33
2022-10-13T22:33:56.381Z,66.45
2022-10-13T22:36:27.465Z,66.76
2022-10-13T22:38:58.735Z,66.42
2022-10-13T22:41:27.029Z,65.92
2022-10-13T22:43:57.185Z,65.71
2022-10-13T22:46:26.721Z,65.13
2022-10-13T22:48:56.279Z,64.92
2022-10-13T22:51:27.502Z,63.85
2022-10-13T22:53:55.708Z,63.67
2022-10-13T22:56:26.477Z,64.38
2022-10-13T22:58:56.915Z,64.46
2022-10-13T23:01:25.579Z,65.55
2022-10-13T23:03:56.402Z,66.18
2022-10-13T23:06:28.607Z,66.45
2022-10-13T23:08:57.220Z,66.57
2022-10-13T23:11:25.579Z,66.27
2022-10-13T23:13:53.735Z,66.74
2022-10-13T23:16:23.940Z,66.76
2022-10-13T23:18:52.214Z,66.79
2022-10-13T23:21:22.186Z,66.71
2022-10-13T23:23:56.173Z,66.98
2022-10-13T23:26:24.494Z,67.59
2022-10-13T23:28:52.815Z,67.91
2022-10-13T23:31:21.118Z,68.13
2022-10-13T23:33:49.287Z,68.51
2022-10-13T23:36:19.154Z,68.76
2022-10-13T23:38:47.575Z,68.66
2022-10-13T23:41:18.128Z,68.40
2022-10-13T23:43:46.250Z,68.14
2022-10-13T23:46:15.163Z,68.68
2022-10-13T23:48:43.637Z,68.52
2022-10-13T23:51:13.925Z,68.26
2022-10-13T23:53:43.350Z,68.73
2022-10-13T23:56:12.743Z,68.71
2022-10-13T23:58:44.130Z,69.20
